Observations for Trim Market St
| Time | AQI | Temp °C | Hum % | Pres Pa | CO μg/m³ | H₂S μg/m³ | NO μg/m³ | NO₂ μg/m³ | O₃ μg/m³ | SO₂ μg/m³ | PM1 μg/m³ | PM2.5 μg/m³ | PM10 μg/m³ |
|---|---|---|---|---|---|---|---|---|---|---|---|---|---|
| Monday 24 August 2026 | |||||||||||||
| 15:14 | 3 | 37.4 | 21 | 66,679 | 0 | 0 | 0.86 | 30.89 | 111.12 | 0 | 1.43 | 5.37 | 5.9 |
| 15:13 | 3 | 37.4 | 21 | 66,669 | 0 | 0 | 0.86 | 35.28 | 127.41 | 0 | 1.43 | 4.81 | 5.29 |
| 15:12 | 3 | 37.4 | 21 | 66,684 | 0 | 0 | 0.82 | 38.2 | 131.21 | 0 | 2.85 | 7.04 | 7.74 |
| 15:11 | 3 | 37.4 | 21 | 66,681 | 0 | 0 | 0.79 | 23.16 | 104.12 | 0 | 1.43 | 5.37 | 5.9 |
| 15:10 | 3 | 37.4 | 21 | 66,675 | 0 | 0 | 0.8 | 33.92 | 135.46 | 0 | 2.14 | 6.47 | 6.61 |
| 15:07 | 3 | 37.4 | 21 | 66,696 | 0 | 0 | 0.84 | 35.72 | 134.74 | 0 | 1.43 | 5.37 | 5.9 |
| 15:04 | 3 | 37.3 | 20 | 66,712 | 0 | 0 | 0.81 | 38.96 | 128.67 | 0 | 2.14 | 5.95 | 6.54 |
| 15:03 | 3 | 37.3 | 20 | 66,690 | 0 | 0 | 0.81 | 28.47 | 119 | 0 | 2.14 | 5.95 | 6.54 |
| 14:59 | 3 | 37.2 | 20 | 66,665 | 0 | 0 | 0.83 | 32.08 | 132.73 | 0 | 1.43 | 5.95 | 7.52 |
| 14:52 | 2 | 37.2 | 21 | 66,671 | 0 | 0 | 0.84 | 34.08 | 128.72 | 0 | 1.43 | 5.38 | 5.92 |
| 14:51 | 2 | 37.3 | 21 | 66,665 | 0 | 0 | 0.84 | 25.69 | 108.75 | 0 | 2.14 | 5.37 | 5.9 |
| 14:50 | 2 | 37.3 | 21 | 66,663 | 0 | 0 | 0.85 | 27.77 | 116.74 | 0 | 2.85 | 7.03 | 7.73 |
| 14:49 | 2 | 37.3 | 21 | 66,659 | 0 | 0 | 0.84 | 32.37 | 108.64 | 0 | 2.14 | 6.47 | 6.61 |
| 14:47 | 2 | 37.3 | 22 | 66,667 | 0 | 0 | 0.86 | 26.22 | 114.82 | 0.43 | 1.43 | 5.33 | 5.86 |
| 14:46 | 2 | 37.3 | 22 | 66,663 | 0 | 0 | 0.84 | 34.04 | 121.81 | 0 | 1.43 | 5.89 | 6.48 |
| 14:45 | 2 | 37.3 | 22 | 66,682 | 0 | 0 | 0.82 | 28.22 | 118.6 | 0.05 | 2.14 | 7 | 7.7 |
| 14:44 | 2 | 37.4 | 22 | 66,716 | 0 | 0 | 0.82 | 31.9 | 110.05 | 0 | 2.14 | 6.44 | 7.09 |
| 14:41 | 2 | 37.4 | 22 | 66,700 | 0 | 0 | 0.81 | 29.78 | 103.88 | 0 | 3.56 | 7.55 | 11.18 |
| 14:40 | 2 | 37.4 | 22 | 66,704 | 0 | 0 | 0.82 | 34.5 | 130.73 | 0 | 2.14 | 5.89 | 6.48 |
| 14:37 | 2 | 37.5 | 21 | 66,718 | 0 | 0 | 0.87 | 33.53 | 122.87 | 0 | 2.85 | 6.46 | 6.61 |